This is the latest recevied weather packets stored in our database for station/object EPGD. If no packets are shown the sender has not sent any weather packets the latest 10 day(s).
| Time | Temp. | Humidity | Pressure | Rain* | Wind** | Luminosity | Snow |
|---|---|---|---|---|---|---|---|
| 1788069904 | 17.78° C | 72% | 1011 hPa | - | - | - | - |
| 1788068104 | 17.78° C | 72% | 1011 hPa | - | - | - | - |
| 1788066304 | 16.67° C | 77% | 1011 hPa | - | - | - | - |
| 1788064504 | 16.67° C | 77% | 1011 hPa | - | - | - | - |
| 1788039304 | 17.78° C | 77% | 1011 hPa | - | - | - | - |
| 1788037504 | 17.78° C | 82% | 1012 hPa | - | - | - | - |
| 1788035704 | 17.78° C | 77% | 1012 hPa | - | - | - | - |
| 1788033904 | 17.78° C | 77% | 1012 hPa | - | - | - | - |
| 1788030304 | 15.56° C | 87% | 1011 hPa | - | - | - | - |
| 1788028504 | 16.67° C | 88% | 1011 hPa | - | - | - | - |
| 1788024904 | 18.89° C | 68% | 1011 hPa | - | - | - | - |
| 1788023104 | 20.56° C | 64% | 1011 hPa | - | - | - | - |
| 1788019504 | 22.78° C | 56% | 1011 hPa | - | - | - | - |
| 1788015904 | 21.67° C | 60% | 1011 hPa | - | - | - | - |
| 1788012304 | 21.67° C | 64% | 1011 hPa | - | - | - | - |
| 1788010503 | 20.56° C | 73% | 1010 hPa | - | - | - | - |
| 1788006904 | 20° C | 72% | 1010 hPa | - | - | - | - |
| 1788005104 | 20° C | 72% | 1010 hPa | - | - | - | - |
| 1788003304 | 20.56° C | 73% | 1010 hPa | - | - | - | - |
| 1787999704 | 20° C | 77% | 1010 hPa | - | - | - | - |
| 1787997904 | 20° C | 82% | 1010 hPa | - | - | - | - |
| 1787996104 | 18.89° C | 88% | 1009 hPa | - | - | - | - |
| 1787994304 | 17.78° C | 93% | 1009 hPa | - | - | - | - |
| 1787992504 | 16.67° C | 93% | 1009 hPa | - | - | - | - |
| 1787990704 | 15.56° C | 100% | 1009 hPa | - | - | - | - |
* Rain since midnight (hover to see other rain measurements)
** Current wind speed in m/s (hover to see current wind gust speed)